sensor_id;sensor_type;location;lat;lon;timestamp;pressure;altitude;pressure_sealevel;temperature;humidity
19890;BME280;10107;51.198;6.824;2023-04-07T00:01:48;-21515.56;;;7.45;100.00
19890;BME280;10107;51.198;6.824;2023-04-07T00:05:51;-21515.56;;;7.45;100.00
19890;BME280;10107;51.198;6.824;2023-04-07T00:09:52;-21514.63;;;7.41;100.00
19890;BME280;10107;51.198;6.824;2023-04-07T00:13:54;-21514.50;;;7.41;100.00
19890;BME280;10107;51.198;6.824;2023-04-07T00:17:56;-21514.78;;;7.42;100.00
19890;BME280;10107;51.198;6.824;2023-04-07T00:21:59;-21514.63;;;7.41;100.00
19890;BME280;10107;51.198;6.824;2023-04-07T00:26:00;-21515.44;;;7.44;100.00
19890;BME280;10107;51.198;6.824;2023-04-07T00:30:03;-21516.09;;;7.47;100.00
19890;BME280;10107;51.198;6.824;2023-04-07T00:34:04;-21517.44;;;7.52;100.00
19890;BME280;10107;51.198;6.824;2023-04-07T00:38:07;-21517.84;;;7.53;100.00
19890;BME280;10107;51.198;6.824;2023-04-07T00:42:09;-21518.91;;;7.58;100.00
19890;BME280;10107;51.198;6.824;2023-04-07T00:46:11;-21518.63;;;7.57;100.00
19890;BME280;10107;51.198;6.824;2023-04-07T00:50:13;-21518.38;;;7.56;100.00
19890;BME280;10107;51.198;6.824;2023-04-07T00:54:16;-21518.63;;;7.57;100.00
19890;BME280;10107;51.198;6.824;2023-04-07T00:58:18;-21518.91;;;7.58;100.00
19890;BME280;10107;51.198;6.824;2023-04-07T01:02:24;-21519.44;;;7.60;100.00
19890;BME280;10107;51.198;6.824;2023-04-07T01:06:32;-21519.44;;;7.60;100.00
19890;BME280;10107;51.198;6.824;2023-04-07T01:10:42;-21520.50;;;7.64;100.00
19890;BME280;10107;51.198;6.824;2023-04-07T01:14:55;-21520.09;;;7.62;100.00
19890;BME280;10107;51.198;6.824;2023-04-07T01:19:15;-21521.16;;;7.66;100.00
19890;BME280;10107;51.198;6.824;2023-04-07T01:23:38;-21521.44;;;7.67;100.00
19890;BME280;10107;51.198;6.824;2023-04-07T01:27:56;-21521.81;;;7.69;100.00
19890;BME280;10107;51.198;6.824;2023-04-07T01:32:06;-21522.09;;;7.70;100.00
19890;BME280;10107;51.198;6.824;2023-04-07T01:36:11;-21522.09;;;7.70;100.00
19890;BME280;10107;51.198;6.824;2023-04-07T01:40:14;-21522.63;;;7.72;100.00
19890;BME280;10107;51.198;6.824;2023-04-07T01:44:17;-21522.63;;;7.72;100.00
19890;BME280;10107;51.198;6.824;2023-04-07T01:48:21;-21523.16;;;7.74;100.00
19890;BME280;10107;51.198;6.824;2023-04-07T01:52:23;-21523.94;;;7.77;100.00
19890;BME280;10107;51.198;6.824;2023-04-07T01:56:26;-21524.63;;;7.80;100.00
19890;BME280;10107;51.198;6.824;2023-04-07T02:00:31;-21523.81;;;7.77;100.00
19890;BME280;10107;51.198;6.824;2023-04-07T02:04:44;-21524.47;;;7.79;100.00
19890;BME280;10107;51.198;6.824;2023-04-07T02:08:54;-21524.88;;;7.81;100.00
19890;BME280;10107;51.198;6.824;2023-04-07T02:12:59;-21525.69;;;7.84;100.00
19890;BME280;10107;51.198;6.824;2023-04-07T02:17:03;-21526.34;;;7.86;100.00
19890;BME280;10107;51.198;6.824;2023-04-07T02:21:07;-21527.28;;;7.90;100.00
19890;BME280;10107;51.198;6.824;2023-04-07T02:25:20;-21527.94;;;7.92;100.00
19890;BME280;10107;51.198;6.824;2023-04-07T02:29:22;-21528.47;;;7.94;100.00
19890;BME280;10107;51.198;6.824;2023-04-07T02:33:24;-21529.13;;;7.97;100.00
19890;BME280;10107;51.198;6.824;2023-04-07T02:37:27;-21528.47;;;7.94;100.00
19890;BME280;10107;51.198;6.824;2023-04-07T02:41:28;-21529.53;;;7.99;100.00
19890;BME280;10107;51.198;6.824;2023-04-07T02:45:30;-21529.53;;;7.99;100.00
19890;BME280;10107;51.198;6.824;2023-04-07T02:49:32;-21529.81;;;8.00;100.00
19890;BME280;10107;51.198;6.824;2023-04-07T02:53:35;-21530.19;;;8.01;100.00
19890;BME280;10107;51.198;6.824;2023-04-07T02:57:38;-21529.94;;;8.00;100.00
19890;BME280;10107;51.198;6.824;2023-04-07T03:01:44;-21529.53;;;7.99;100.00
19890;BME280;10107;51.198;6.824;2023-04-07T03:05:46;-21529.53;;;7.99;100.00
19890;BME280;10107;51.198;6.824;2023-04-07T03:09:49;-21529.13;;;7.97;100.00
19890;BME280;10107;51.198;6.824;2023-04-07T03:13:52;-21528.88;;;7.96;100.00
19890;BME280;10107;51.198;6.824;2023-04-07T03:17:54;-21528.75;;;7.96;100.00
19890;BME280;10107;51.198;6.824;2023-04-07T03:21:57;-21528.34;;;7.94;100.00
19890;BME280;10107;51.198;6.824;2023-04-07T03:26:00;-21528.06;;;7.93;100.00
19890;BME280;10107;51.198;6.824;2023-04-07T03:30:07;-21527.53;;;7.91;100.00
19890;BME280;10107;51.198;6.824;2023-04-07T03:34:09;-21527.16;;;7.89;100.00
19890;BME280;10107;51.198;6.824;2023-04-07T03:38:11;-21527.53;;;7.91;100.00
19890;BME280;10107;51.198;6.824;2023-04-07T03:42:14;-21527.16;;;7.89;100.00
19890;BME280;10107;51.198;6.824;2023-04-07T03:46:18;-21526.75;;;7.88;100.00
19890;BME280;10107;51.198;6.824;2023-04-07T03:50:20;-21526.47;;;7.87;100.00
19890;BME280;10107;51.198;6.824;2023-04-07T03:54:33;-21526.47;;;7.87;100.00
19890;BME280;10107;51.198;6.824;2023-04-07T03:58:38;-21525.94;;;7.85;100.00
19890;BME280;10107;51.198;6.824;2023-04-07T04:02:44;-21524.88;;;7.81;100.00
19890;BME280;10107;51.198;6.824;2023-04-07T04:06:51;-21525.00;;;7.81;100.00
19890;BME280;10107;51.198;6.824;2023-04-07T04:10:59;-21525.28;;;7.82;100.00
19890;BME280;10107;51.198;6.824;2023-04-07T04:15:09;-21524.34;;;7.79;100.00
19890;BME280;10107;51.198;6.824;2023-04-07T04:19:12;-21523.56;;;7.76;100.00
19890;BME280;10107;51.198;6.824;2023-04-07T04:23:14;-21522.88;;;7.73;100.00
19890;BME280;10107;51.198;6.824;2023-04-07T04:27:16;-21522.34;;;7.71;100.00
19890;BME280;10107;51.198;6.824;2023-04-07T04:31:24;-21521.44;;;7.67;100.00
19890;BME280;10107;51.198;6.824;2023-04-07T04:35:26;-21521.16;;;7.66;100.00
19890;BME280;10107;51.198;6.824;2023-04-07T04:39:41;-21520.22;;;7.63;100.00
19890;BME280;10107;51.198;6.824;2023-04-07T04:43:46;-21520.34;;;7.63;100.00
19890;BME280;10107;51.198;6.824;2023-04-07T04:47:53;-21519.81;;;7.61;100.00
19890;BME280;10107;51.198;6.824;2023-04-07T04:51:55;-21519.03;;;7.58;100.00
19890;BME280;10107;51.198;6.824;2023-04-07T04:55:57;-21519.03;;;7.58;100.00
19890;BME280;10107;51.198;6.824;2023-04-07T05:00:10;-21519.16;;;7.59;100.00
19890;BME280;10107;51.198;6.824;2023-04-07T05:04:15;-21518.50;;;7.56;100.00
19890;BME280;10107;51.198;6.824;2023-04-07T05:08:24;-21518.09;;;7.54;100.00
19890;BME280;10107;51.198;6.824;2023-04-07T05:12:27;-21517.56;;;7.52;100.00
19890;BME280;10107;51.198;6.824;2023-04-07T05:16:33;-21517.28;;;7.51;100.00
19890;BME280;10107;51.198;6.824;2023-04-07T05:20:38;-21517.03;;;7.50;100.00
19890;BME280;10107;51.198;6.824;2023-04-07T05:24:41;-21516.38;;;7.48;100.00
19890;BME280;10107;51.198;6.824;2023-04-07T05:28:43;-21516.38;;;7.48;100.00
19890;BME280;10107;51.198;6.824;2023-04-07T05:32:51;-21516.22;;;7.47;100.00
19890;BME280;10107;51.198;6.824;2023-04-07T05:37:13;-21516.50;;;7.48;100.00
19890;BME280;10107;51.198;6.824;2023-04-07T05:41:14;-21517.56;;;7.52;100.00
19890;BME280;10107;51.198;6.824;2023-04-07T05:45:17;-21517.44;;;7.52;100.00
19890;BME280;10107;51.198;6.824;2023-04-07T05:49:21;-21517.69;;;7.53;100.00
19890;BME280;10107;51.198;6.824;2023-04-07T05:53:33;-21518.22;;;7.55;100.00
19890;BME280;10107;51.198;6.824;2023-04-07T05:57:35;-21518.75;;;7.57;100.00
19890;BME280;10107;51.198;6.824;2023-04-07T06:01:38;-21519.69;;;7.61;100.00
19890;BME280;10107;51.198;6.824;2023-04-07T06:05:45;-21519.97;;;7.62;100.00
19890;BME280;10107;51.198;6.824;2023-04-07T06:09:49;-21519.03;;;7.58;100.00
19890;BME280;10107;51.198;6.824;2023-04-07T06:13:50;-21520.09;;;7.62;100.00
19890;BME280;10107;51.198;6.824;2023-04-07T06:17:52;-21520.88;;;7.65;100.00
19890;BME280;10107;51.198;6.824;2023-04-07T06:21:54;-21521.69;;;7.68;100.00
19890;BME280;10107;51.198;6.824;2023-04-07T06:25:57;-21522.22;;;7.70;100.00
19890;BME280;10107;51.198;6.824;2023-04-07T06:29:58;-21522.75;;;7.72;100.00
19890;BME280;10107;51.198;6.824;2023-04-07T06:34:00;-21523.28;;;7.74;100.00
19890;BME280;10107;51.198;6.824;2023-04-07T06:38:02;-21524.75;;;7.80;100.00
19890;BME280;10107;51.198;6.824;2023-04-07T06:42:05;-21525.81;;;7.84;100.00
19890;BME280;10107;51.198;6.824;2023-04-07T06:46:11;-21526.47;;;7.87;100.00
19890;BME280;10107;51.198;6.824;2023-04-07T06:50:13;-21527.81;;;7.92;100.00
19890;BME280;10107;51.198;6.824;2023-04-07T06:54:15;-21529.28;;;7.98;100.00
19890;BME280;10107;51.198;6.824;2023-04-07T06:58:18;-21529.94;;;8.00;100.00
19890;BME280;10107;51.198;6.824;2023-04-07T07:02:19;-21530.06;;;8.01;100.00
19890;BME280;10107;51.198;6.824;2023-04-07T07:06:21;-21531.78;;;8.07;100.00
19890;BME280;10107;51.198;6.824;2023-04-07T07:10:22;-21533.38;;;8.13;100.00
19890;BME280;10107;51.198;6.824;2023-04-07T07:14:25;-21534.72;;;8.19;100.00
19890;BME280;10107;51.198;6.824;2023-04-07T07:18:27;-21534.47;;;8.18;100.00
19890;BME280;10107;51.198;6.824;2023-04-07T07:22:29;-21535.53;;;8.22;100.00
19890;BME280;10107;51.198;6.824;2023-04-07T07:26:30;-21535.78;;;8.23;100.00
19890;BME280;10107;51.198;6.824;2023-04-07T07:30:33;-21535.91;;;8.23;100.00
19890;BME280;10107;51.198;6.824;2023-04-07T07:34:35;-21536.06;;;8.24;100.00
19890;BME280;10107;51.198;6.824;2023-04-07T07:38:38;-21536.97;;;8.27;100.00
19890;BME280;10107;51.198;6.824;2023-04-07T07:42:40;-21538.31;;;8.32;100.00
19890;BME280;10107;51.198;6.824;2023-04-07T07:46:43;-21539.09;;;8.36;100.00
19890;BME280;10107;51.198;6.824;2023-04-07T07:50:45;-21541.91;;;8.46;100.00
19890;BME280;10107;51.198;6.824;2023-04-07T07:54:48;-21542.97;;;8.50;100.00
19890;BME280;10107;51.198;6.824;2023-04-07T07:58:49;-21544.03;;;8.55;100.00
19890;BME280;10107;51.198;6.824;2023-04-07T08:02:53;-21545.50;;;8.60;100.00
19890;BME280;10107;51.198;6.824;2023-04-07T08:06:54;-21546.69;;;8.65;100.00
19890;BME280;10107;51.198;6.824;2023-04-07T08:10:56;-21547.09;;;8.66;100.00
19890;BME280;10107;51.198;6.824;2023-04-07T08:14:58;-21547.63;;;8.68;100.00
19890;BME280;10107;51.198;6.824;2023-04-07T08:19:01;-21548.00;;;8.70;100.00
19890;BME280;10107;51.198;6.824;2023-04-07T08:23:02;-21548.41;;;8.71;100.00
19890;BME280;10107;51.198;6.824;2023-04-07T08:27:04;-21549.88;;;8.77;100.00
19890;BME280;10107;51.198;6.824;2023-04-07T08:31:06;-21550.13;;;8.78;100.00
19890;BME280;10107;51.198;6.824;2023-04-07T08:35:09;-21550.13;;;8.78;100.00
19890;BME280;10107;51.198;6.824;2023-04-07T08:39:11;-21551.19;;;8.82;100.00
19890;BME280;10107;51.198;6.824;2023-04-07T08:43:13;-21553.59;;;8.91;100.00
19890;BME280;10107;51.198;6.824;2023-04-07T08:47:17;-21552.66;;;8.88;100.00
19890;BME280;10107;51.198;6.824;2023-04-07T08:51:27;-21551.47;;;8.83;100.00
19890;BME280;10107;51.198;6.824;2023-04-07T08:55:29;-21551.34;;;8.83;100.00
19890;BME280;10107;51.198;6.824;2023-04-07T08:59:30;-21550.41;;;8.79;100.00
19890;BME280;10107;51.198;6.824;2023-04-07T09:03:33;-21550.28;;;8.79;100.00
19890;BME280;10107;51.198;6.824;2023-04-07T09:07:38;-21547.50;;;8.68;100.00
19890;BME280;10107;51.198;6.824;2023-04-07T09:11:40;-21546.94;;;8.66;100.00
19890;BME280;10107;51.198;6.824;2023-04-07T09:15:42;-21547.63;;;8.68;100.00
19890;BME280;10107;51.198;6.824;2023-04-07T09:19:44;-21550.66;;;8.80;100.00
19890;BME280;10107;51.198;6.824;2023-04-07T09:23:47;-21552.25;;;8.86;100.00
19890;BME280;10107;51.198;6.824;2023-04-07T09:27:56;-21556.13;;;9.01;100.00
19890;BME280;10107;51.198;6.824;2023-04-07T09:31:58;-21559.56;;;9.15;100.00
19890;BME280;10107;51.198;6.824;2023-04-07T09:35:59;-21561.97;;;9.24;100.00
19890;BME280;10107;51.198;6.824;2023-04-07T09:40:03;-21561.56;;;9.22;100.00
19890;BME280;10107;51.198;6.824;2023-04-07T09:44:05;-21558.13;;;9.09;100.00
19890;BME280;10107;51.198;6.824;2023-04-07T09:48:07;-21555.44;;;8.99;100.00
19890;BME280;10107;51.198;6.824;2023-04-07T09:52:21;-21551.19;;;8.82;100.00
19890;BME280;10107;51.198;6.824;2023-04-07T09:56:25;-21549.88;;;8.77;100.00
19890;BME280;10107;51.198;6.824;2023-04-07T10:00:29;-21553.59;;;8.91;100.00
19890;BME280;10107;51.198;6.824;2023-04-07T10:04:31;-21559.97;;;9.16;100.00
19890;BME280;10107;51.198;6.824;2023-04-07T10:08:34;-21567.41;;;9.45;100.00
19890;BME280;10107;51.198;6.824;2023-04-07T10:12:38;-21570.97;;;9.59;100.00
19890;BME280;10107;51.198;6.824;2023-04-07T10:16:41;-21573.09;;;9.67;100.00
19890;BME280;10107;51.198;6.824;2023-04-07T10:20:43;-21574.69;;;9.73;100.00
19890;BME280;10107;51.198;6.824;2023-04-07T10:24:53;-21576.03;;;9.78;100.00
19890;BME280;10107;51.198;6.824;2023-04-07T10:29:01;-21576.81;;;9.81;100.00
19890;BME280;10107;51.198;6.824;2023-04-07T10:33:03;-21578.41;;;9.87;100.00
19890;BME280;10107;51.198;6.824;2023-04-07T10:37:10;-21577.75;;;9.85;100.00
19890;BME280;10107;51.198;6.824;2023-04-07T10:41:31;-21574.16;;;9.71;100.00
19890;BME280;10107;51.198;6.824;2023-04-07T10:45:54;-21576.41;;;9.80;100.00
19890;BME280;10107;51.198;6.824;2023-04-07T10:50:18;-21586.63;;;10.19;100.00
19890;BME280;10107;51.198;6.824;2023-04-07T10:54:21;-21593.66;;;10.46;100.00
19890;BME280;10107;51.198;6.824;2023-04-07T10:58:26;-21601.47;;;10.77;100.00
19890;BME280;10107;51.198;6.824;2023-04-07T11:02:33;-21604.25;;;10.87;100.00
19890;BME280;10107;51.198;6.824;2023-04-07T11:06:45;-21595.63;;;10.54;100.00
19890;BME280;10107;51.198;6.824;2023-04-07T11:10:47;-21588.47;;;10.26;100.00
19890;BME280;10107;51.198;6.824;2023-04-07T11:14:49;-21585.97;;;10.17;100.00
19890;BME280;10107;51.198;6.824;2023-04-07T11:18:56;-21586.09;;;10.17;100.00
19890;BME280;10107;51.198;6.824;2023-04-07T11:23:00;-21586.38;;;10.18;100.00
19890;BME280;10107;51.198;6.824;2023-04-07T11:27:02;-21586.50;;;10.19;100.00
19890;BME280;10107;51.198;6.824;2023-04-07T11:31:04;-21588.34;;;10.26;100.00
19890;BME280;10107;51.198;6.824;2023-04-07T11:35:08;-21594.84;;;10.51;100.00
19890;BME280;10107;51.198;6.824;2023-04-07T11:39:20;-21602.53;;;10.81;100.00
19890;BME280;10107;51.198;6.824;2023-04-07T11:43:24;-21612.31;;;11.19;100.00
19890;BME280;10107;51.198;6.824;2023-04-07T11:47:33;-21615.38;;;11.30;100.00
19890;BME280;10107;51.198;6.824;2023-04-07T11:51:36;-21613.53;;;11.23;100.00
19890;BME280;10107;51.198;6.824;2023-04-07T11:55:38;-21609.03;;;11.06;100.00
19890;BME280;10107;51.198;6.824;2023-04-07T11:59:40;-21608.50;;;11.04;100.00
19890;BME280;10107;51.198;6.824;2023-04-07T12:03:54;-21616.44;;;11.35;100.00
19890;BME280;10107;51.198;6.824;2023-04-07T12:07:59;-21630.72;;;11.90;100.00
19890;BME280;10107;51.198;6.824;2023-04-07T12:12:02;-21647.09;;;12.54;100.00
19890;BME280;10107;51.198;6.824;2023-04-07T12:16:05;-21652.50;;;12.75;100.00
19890;BME280;10107;51.198;6.824;2023-04-07T12:20:07;-21649.06;;;12.61;100.00
19890;BME280;10107;51.198;6.824;2023-04-07T12:24:10;-21645.25;;;12.46;100.00
19890;BME280;10107;51.198;6.824;2023-04-07T12:28:12;-21636.41;;;12.12;100.00
19890;BME280;10107;51.198;6.824;2023-04-07T12:32:13;-21636.00;;;12.11;100.00
19890;BME280;10107;51.198;6.824;2023-04-07T12:36:15;-21644.31;;;12.43;100.00
19890;BME280;10107;51.198;6.824;2023-04-07T12:40:18;-21657.91;;;12.96;100.00
19890;BME280;10107;51.198;6.824;2023-04-07T12:44:20;-21657.13;;;12.93;100.00
19890;BME280;10107;51.198;6.824;2023-04-07T12:48:22;-21648.16;;;12.58;100.00
19890;BME280;10107;51.198;6.824;2023-04-07T12:52:24;-21640.75;;;12.29;100.00
19890;BME280;10107;51.198;6.824;2023-04-07T12:56:27;-21635.34;;;12.08;100.00
19890;BME280;10107;51.198;6.824;2023-04-07T13:00:30;-21638.91;;;12.22;100.00
19890;BME280;10107;51.198;6.824;2023-04-07T13:04:32;-21645.63;;;12.48;100.00
19890;BME280;10107;51.198;6.824;2023-04-07T13:08:34;-21639.28;;;12.23;100.00
19890;BME280;10107;51.198;6.824;2023-04-07T13:12:37;-21637.31;;;12.16;100.00
19890;BME280;10107;51.198;6.824;2023-04-07T13:16:40;-21635.19;;;12.07;100.00
19890;BME280;10107;51.198;6.824;2023-04-07T13:20:42;-21635.72;;;12.09;100.00
19890;BME280;10107;51.198;6.824;2023-04-07T13:24:44;-21636.53;;;12.13;100.00
19890;BME280;10107;51.198;6.824;2023-04-07T13:28:47;-21635.19;;;12.07;100.00
19890;BME280;10107;51.198;6.824;2023-04-07T13:32:49;-21633.63;;;12.01;100.00
19890;BME280;10107;51.198;6.824;2023-04-07T13:36:51;-21631.25;;;11.92;100.00
19890;BME280;10107;51.198;6.824;2023-04-07T13:40:53;-21625.81;;;11.71;100.00
19890;BME280;10107;51.198;6.824;2023-04-07T13:44:56;-21618.69;;;11.43;100.00
19890;BME280;10107;51.198;6.824;2023-04-07T13:48:57;-21618.28;;;11.42;100.00
19890;BME280;10107;51.198;6.824;2023-04-07T13:52:59;-21623.16;;;11.61;100.00
19890;BME280;10107;51.198;6.824;2023-04-07T13:57:01;-21625.16;;;11.68;100.00
19890;BME280;10107;51.198;6.824;2023-04-07T14:01:05;-21629.00;;;11.83;100.00
19890;BME280;10107;51.198;6.824;2023-04-07T14:05:07;-21634.53;;;12.05;100.00
19890;BME280;10107;51.198;6.824;2023-04-07T14:09:08;-21636.66;;;12.13;100.00
19890;BME280;10107;51.198;6.824;2023-04-07T14:13:10;-21629.66;;;11.86;100.00
19890;BME280;10107;51.198;6.824;2023-04-07T14:17:13;-21625.41;;;11.69;100.00
19890;BME280;10107;51.198;6.824;2023-04-07T14:21:15;-21628.06;;;11.80;100.00
19890;BME280;10107;51.198;6.824;2023-04-07T14:25:17;-21631.50;;;11.93;100.00
19890;BME280;10107;51.198;6.824;2023-04-07T14:29:20;-21640.63;;;12.28;100.00
19890;BME280;10107;51.198;6.824;2023-04-07T14:33:23;-21648.28;;;12.58;100.00
19890;BME280;10107;51.198;6.824;2023-04-07T14:37:26;-21652.09;;;12.73;100.00
19890;BME280;10107;51.198;6.824;2023-04-07T14:41:28;-21654.88;;;12.84;100.00
19890;BME280;10107;51.198;6.824;2023-04-07T14:45:30;-21656.84;;;12.92;100.00
19890;BME280;10107;51.198;6.824;2023-04-07T14:49:33;-21659.09;;;13.00;100.00
19890;BME280;10107;51.198;6.824;2023-04-07T14:53:35;-21658.72;;;12.99;100.00
19890;BME280;10107;51.198;6.824;2023-04-07T14:57:37;-21656.84;;;12.92;100.00
19890;BME280;10107;51.198;6.824;2023-04-07T15:01:39;-21658.19;;;12.97;100.00
19890;BME280;10107;51.198;6.824;2023-04-07T15:05:42;-21648.53;;;12.59;100.00
19890;BME280;10107;51.198;6.824;2023-04-07T15:09:46;-21638.38;;;12.20;100.00
19890;BME280;10107;51.198;6.824;2023-04-07T15:13:47;-21634.28;;;12.04;100.00
19890;BME280;10107;51.198;6.824;2023-04-07T15:17:49;-21634.41;;;12.04;100.00
19890;BME280;10107;51.198;6.824;2023-04-07T15:21:52;-21635.59;;;12.09;100.00
19890;BME280;10107;51.198;6.824;2023-04-07T15:25:54;-21636.41;;;12.12;100.00
19890;BME280;10107;51.198;6.824;2023-04-07T15:29:57;-21633.75;;;12.02;100.00
19890;BME280;10107;51.198;6.824;2023-04-07T15:33:58;-21628.59;;;11.82;100.00
19890;BME280;10107;51.198;6.824;2023-04-07T15:38:01;-21622.78;;;11.59;100.00
19890;BME280;10107;51.198;6.824;2023-04-07T15:42:03;-21620.25;;;11.49;100.00
19890;BME280;10107;51.198;6.824;2023-04-07T15:46:07;-21610.59;;;11.12;100.00
19890;BME280;10107;51.198;6.824;2023-04-07T15:50:09;-21607.56;;;11.00;100.00
19890;BME280;10107;51.198;6.824;2023-04-07T15:54:12;-21607.16;;;10.99;100.00
19890;BME280;10107;51.198;6.824;2023-04-07T15:58:14;-21605.31;;;10.92;100.00
19890;BME280;10107;51.198;6.824;2023-04-07T16:02:15;-21602.41;;;10.80;100.00
19890;BME280;10107;51.198;6.824;2023-04-07T16:06:17;-21602.41;;;10.80;100.00
19890;BME280;10107;51.198;6.824;2023-04-07T16:10:20;-21603.47;;;10.84;100.00
19890;BME280;10107;51.198;6.824;2023-04-07T16:14:24;-21602.66;;;10.81;100.00
19890;BME280;10107;51.198;6.824;2023-04-07T16:18:28;-21601.72;;;10.78;100.00
19890;BME280;10107;51.198;6.824;2023-04-07T16:22:30;-21601.59;;;10.77;100.00
19890;BME280;10107;51.198;6.824;2023-04-07T16:26:33;-21598.81;;;10.66;100.00
19890;BME280;10107;51.198;6.824;2023-04-07T16:30:34;-21596.84;;;10.59;100.00
19890;BME280;10107;51.198;6.824;2023-04-07T16:34:36;-21595.25;;;10.53;100.00
19890;BME280;10107;51.198;6.824;2023-04-07T16:38:38;-21595.38;;;10.53;100.00
19890;BME280;10107;51.198;6.824;2023-04-07T16:42:41;-21596.97;;;10.59;100.00
19890;BME280;10107;51.198;6.824;2023-04-07T16:46:42;-21597.63;;;10.62;100.00
19890;BME280;10107;51.198;6.824;2023-04-07T16:50:44;-21598.28;;;10.64;100.00
19890;BME280;10107;51.198;6.824;2023-04-07T16:54:46;-21599.47;;;10.69;100.00
19890;BME280;10107;51.198;6.824;2023-04-07T16:58:49;-21601.06;;;10.75;100.00
19890;BME280;10107;51.198;6.824;2023-04-07T17:02:51;-21599.88;;;10.70;100.00
19890;BME280;10107;51.198;6.824;2023-04-07T17:06:53;-21598.16;;;10.64;100.00
19890;BME280;10107;51.198;6.824;2023-04-07T17:10:54;-21595.50;;;10.54;100.00
19890;BME280;10107;51.198;6.824;2023-04-07T17:14:57;-21591.13;;;10.37;100.00
19890;BME280;10107;51.198;6.824;2023-04-07T17:18:59;-21588.34;;;10.26;100.00
19890;BME280;10107;51.198;6.824;2023-04-07T17:23:00;-21587.56;;;10.23;100.00
19890;BME280;10107;51.198;6.824;2023-04-07T17:27:02;-21584.13;;;10.09;100.00
19890;BME280;10107;51.198;6.824;2023-04-07T17:31:05;-21580.13;;;9.94;100.00
19890;BME280;10107;51.198;6.824;2023-04-07T17:35:07;-21574.81;;;9.74;100.00
19890;BME280;10107;51.198;6.824;2023-04-07T17:39:09;-21572.03;;;9.63;100.00
19890;BME280;10107;51.198;6.824;2023-04-07T17:43:10;-21569.78;;;9.54;100.00
19890;BME280;10107;51.198;6.824;2023-04-07T17:47:13;-21568.59;;;9.49;100.00
19890;BME280;10107;51.198;6.824;2023-04-07T17:51:15;-21567.28;;;9.44;100.00
19890;BME280;10107;51.198;6.824;2023-04-07T17:55:17;-21565.66;;;9.38;100.00
19890;BME280;10107;51.198;6.824;2023-04-07T17:59:19;-21564.75;;;9.35;100.00
19890;BME280;10107;51.198;6.824;2023-04-07T18:03:22;-21562.88;;;9.27;100.00
19890;BME280;10107;51.198;6.824;2023-04-07T18:07:23;-21561.16;;;9.21;100.00
19890;BME280;10107;51.198;6.824;2023-04-07T18:11:25;-21559.44;;;9.14;100.00
19890;BME280;10107;51.198;6.824;2023-04-07T18:15:27;-21558.38;;;9.10;100.00
19890;BME280;10107;51.198;6.824;2023-04-07T18:19:30;-21557.03;;;9.05;100.00
19890;BME280;10107;51.198;6.824;2023-04-07T18:23:34;-21557.19;;;9.05;100.00
19890;BME280;10107;51.198;6.824;2023-04-07T18:27:36;-21557.31;;;9.06;100.00
19890;BME280;10107;51.198;6.824;2023-04-07T18:31:38;-21556.50;;;9.03;100.00
19890;BME280;10107;51.198;6.824;2023-04-07T18:35:42;-21556.38;;;9.02;100.00
19890;BME280;10107;51.198;6.824;2023-04-07T18:39:44;-21556.25;;;9.02;100.00
19890;BME280;10107;51.198;6.824;2023-04-07T18:43:46;-21555.84;;;9.00;100.00
19890;BME280;10107;51.198;6.824;2023-04-07T18:47:47;-21554.91;;;8.97;100.00
19890;BME280;10107;51.198;6.824;2023-04-07T18:51:50;-21554.00;;;8.93;100.00
19890;BME280;10107;51.198;6.824;2023-04-07T18:55:52;-21553.19;;;8.90;100.00
19890;BME280;10107;51.198;6.824;2023-04-07T18:59:54;-21553.47;;;8.91;100.00
19890;BME280;10107;51.198;6.824;2023-04-07T19:03:56;-21553.19;;;8.90;100.00
19890;BME280;10107;51.198;6.824;2023-04-07T19:07:59;-21552.53;;;8.87;100.00
19890;BME280;10107;51.198;6.824;2023-04-07T19:12:00;-21551.88;;;8.85;100.00
19890;BME280;10107;51.198;6.824;2023-04-07T19:16:02;-21551.06;;;8.82;100.00
19890;BME280;10107;51.198;6.824;2023-04-07T19:20:05;-21550.13;;;8.78;100.00
19890;BME280;10107;51.198;6.824;2023-04-07T19:24:08;-21549.34;;;8.75;100.00
19890;BME280;10107;51.198;6.824;2023-04-07T19:28:10;-21548.94;;;8.74;100.00
19890;BME280;10107;51.198;6.824;2023-04-07T19:32:11;-21548.94;;;8.74;100.00
19890;BME280;10107;51.198;6.824;2023-04-07T19:36:13;-21547.75;;;8.69;100.00
19890;BME280;10107;51.198;6.824;2023-04-07T19:40:16;-21547.75;;;8.69;100.00
19890;BME280;10107;51.198;6.824;2023-04-07T19:44:18;-21547.50;;;8.68;100.00
19890;BME280;10107;51.198;6.824;2023-04-07T19:48:20;-21547.34;;;8.67;100.00
19890;BME280;10107;51.198;6.824;2023-04-07T19:52:22;-21546.69;;;8.65;100.00
19890;BME280;10107;51.198;6.824;2023-04-07T19:56:25;-21546.28;;;8.63;100.00
19890;BME280;10107;51.198;6.824;2023-04-07T20:00:26;-21544.97;;;8.58;100.00
19890;BME280;10107;51.198;6.824;2023-04-07T20:04:29;-21544.44;;;8.56;100.00
19890;BME280;10107;51.198;6.824;2023-04-07T20:08:30;-21544.16;;;8.55;100.00
19890;BME280;10107;51.198;6.824;2023-04-07T20:12:33;-21543.50;;;8.52;100.00
19890;BME280;10107;51.198;6.824;2023-04-07T20:16:35;-21542.56;;;8.49;100.00
19890;BME280;10107;51.198;6.824;2023-04-07T20:20:36;-21542.97;;;8.50;100.00
19890;BME280;10107;51.198;6.824;2023-04-07T20:24:38;-21542.97;;;8.50;100.00
19890;BME280;10107;51.198;6.824;2023-04-07T20:28:41;-21542.31;;;8.48;100.00
19890;BME280;10107;51.198;6.824;2023-04-07T20:32:43;-21540.72;;;8.42;100.00
19890;BME280;10107;51.198;6.824;2023-04-07T20:36:46;-21539.78;;;8.38;100.00
19890;BME280;10107;51.198;6.824;2023-04-07T20:40:49;-21539.78;;;8.38;100.00
19890;BME280;10107;51.198;6.824;2023-04-07T20:44:52;-21538.97;;;8.35;100.00
19890;BME280;10107;51.198;6.824;2023-04-07T20:49:01;-21539.09;;;8.36;100.00
19890;BME280;10107;51.198;6.824;2023-04-07T20:53:03;-21539.25;;;8.36;100.00
19890;BME280;10107;51.198;6.824;2023-04-07T20:57:05;-21538.56;;;8.33;100.00
19890;BME280;10107;51.198;6.824;2023-04-07T21:01:08;-21537.25;;;8.28;100.00
19890;BME280;10107;51.198;6.824;2023-04-07T21:05:10;-21537.38;;;8.29;100.00
19890;BME280;10107;51.198;6.824;2023-04-07T21:09:11;-21537.13;;;8.28;100.00